sensor_id;sensor_type;location;lat;lon;timestamp;pressure;altitude;pressure_sealevel;temperature;humidity
61014;BME280;46899;47.542;19.082;2023-10-09T00:02:17;101456.94;;;8.67;63.73
61014;BME280;46899;47.542;19.082;2023-10-09T00:05:20;101468.22;;;8.66;64.81
61014;BME280;46899;47.542;19.082;2023-10-09T00:08:26;101469.97;;;8.64;66.32
61014;BME280;46899;47.542;19.082;2023-10-09T00:11:33;101463.03;;;8.66;66.45
61014;BME280;46899;47.542;19.082;2023-10-09T00:14:44;101458.62;;;8.74;66.03
61014;BME280;46899;47.542;19.082;2023-10-09T00:17:51;101443.03;;;8.78;65.79
61014;BME280;46899;47.542;19.082;2023-10-09T00:20:54;101448.09;;;8.89;65.60
61014;BME280;46899;47.542;19.082;2023-10-09T00:23:58;101454.13;;;8.91;66.39
61014;BME280;46899;47.542;19.082;2023-10-09T00:27:02;101465.09;;;9.17;64.35
61014;BME280;46899;47.542;19.082;2023-10-09T00:30:17;101460.69;;;9.24;63.25
61014;BME280;46899;47.542;19.082;2023-10-09T00:33:33;101454.59;;;9.26;62.59
61014;BME280;46899;47.542;19.082;2023-10-09T00:36:36;101452.81;;;9.31;61.93
61014;BME280;46899;47.542;19.082;2023-10-09T00:39:53;101445.78;;;9.39;61.20
61014;BME280;46899;47.542;19.082;2023-10-09T00:42:59;101444.81;;;9.48;60.22
61014;BME280;46899;47.542;19.082;2023-10-09T00:46:06;101435.25;;;9.51;60.73
61014;BME280;46899;47.542;19.082;2023-10-09T00:49:28;101443.94;;;9.49;59.84
61014;BME280;46899;47.542;19.082;2023-10-09T00:52:34;101439.66;;;9.43;61.14
61014;BME280;46899;47.542;19.082;2023-10-09T00:55:52;101449.12;;;9.47;61.08
61014;BME280;46899;47.542;19.082;2023-10-09T00:58:59;101453.44;;;9.50;61.06
61014;BME280;46899;47.542;19.082;2023-10-09T01:02:10;101438.69;;;9.53;60.50
61014;BME280;46899;47.542;19.082;2023-10-09T01:05:13;101442.06;;;9.58;60.67
61014;BME280;46899;47.542;19.082;2023-10-09T01:08:23;101436.03;;;9.55;60.78
61014;BME280;46899;47.542;19.082;2023-10-09T01:11:49;101436.03;;;9.55;61.36
61014;BME280;46899;47.542;19.082;2023-10-09T01:15:07;101436.91;;;9.55;61.10
61014;BME280;46899;47.542;19.082;2023-10-09T01:18:10;101446.34;;;9.61;61.20
61014;BME280;46899;47.542;19.082;2023-10-09T01:21:13;101441.13;;;9.64;60.52
61014;BME280;46899;47.542;19.082;2023-10-09T01:24:18;101433.31;;;9.64;60.96
61014;BME280;46899;47.542;19.082;2023-10-09T01:27:25;101448.81;;;9.72;59.37
61014;BME280;46899;47.542;19.082;2023-10-09T01:30:35;101438.41;;;9.72;60.46
61014;BME280;46899;47.542;19.082;2023-10-09T01:33:44;101436.78;;;9.64;61.31
61014;BME280;46899;47.542;19.082;2023-10-09T01:36:47;101432.44;;;9.65;61.25
61014;BME280;46899;47.542;19.082;2023-10-09T01:39:53;101434.16;;;9.68;61.39
61014;BME280;46899;47.542;19.082;2023-10-09T01:42:57;101441.81;;;9.75;60.28
61014;BME280;46899;47.542;19.082;2023-10-09T01:46:00;101433.19;;;9.75;60.06
61014;BME280;46899;47.542;19.082;2023-10-09T01:49:03;101435.69;;;9.81;59.72
61014;BME280;46899;47.542;19.082;2023-10-09T01:52:13;101441.62;;;9.89;59.94
61014;BME280;46899;47.542;19.082;2023-10-09T01:55:19;101441.72;;;9.83;59.63
61014;BME280;46899;47.542;19.082;2023-10-09T01:58:51;101454.56;;;9.92;58.78
61014;BME280;46899;47.542;19.082;2023-10-09T02:01:59;101449.38;;;9.92;58.86
61014;BME280;46899;47.542;19.082;2023-10-09T02:05:08;101455.50;;;9.88;58.56
61014;BME280;46899;47.542;19.082;2023-10-09T02:08:17;101460.66;;;9.91;58.82
61014;BME280;46899;47.542;19.082;2023-10-09T02:11:24;101465.03;;;9.87;59.38
61014;BME280;46899;47.542;19.082;2023-10-09T02:14:39;101454.56;;;9.92;58.89
61014;BME280;46899;47.542;19.082;2023-10-09T02:17:44;101443.34;;;9.90;58.10
61014;BME280;46899;47.542;19.082;2023-10-09T02:24:04;101459.66;;;9.99;58.50
61014;BME280;46899;47.542;19.082;2023-10-09T02:27:10;101442.38;;;9.98;57.99
61014;BME280;46899;47.542;19.082;2023-10-09T02:30:14;101434.50;;;10.03;57.87
61014;BME280;46899;47.542;19.082;2023-10-09T02:33:29;101438.00;;;9.99;58.15
61014;BME280;46899;47.542;19.082;2023-10-09T02:36:34;101431.97;;;9.97;58.56
61014;BME280;46899;47.542;19.082;2023-10-09T02:40:06;101428.41;;;10.04;58.99
61014;BME280;46899;47.542;19.082;2023-10-09T02:43:11;101424.97;;;10.02;61.52
61014;BME280;46899;47.542;19.082;2023-10-09T02:46:21;101405.22;;;9.90;62.08
61014;BME280;46899;47.542;19.082;2023-10-09T02:49:31;101400.06;;;9.89;62.11
61014;BME280;46899;47.542;19.082;2023-10-09T02:52:34;101397.22;;;10.02;59.84
61014;BME280;46899;47.542;19.082;2023-10-09T02:55:44;101402.50;;;9.96;60.30
61014;BME280;46899;47.542;19.082;2023-10-09T02:58:56;101389.56;;;9.92;59.39
61014;BME280;46899;47.542;19.082;2023-10-09T03:02:08;101399.94;;;9.95;59.36
61014;BME280;46899;47.542;19.082;2023-10-09T03:05:11;101392.97;;;9.97;59.64
61014;BME280;46899;47.542;19.082;2023-10-09T03:08:15;101384.31;;;9.96;59.02
61014;BME280;46899;47.542;19.082;2023-10-09T03:11:22;101368.78;;;9.92;59.04
61014;BME280;46899;47.542;19.082;2023-10-09T03:14:26;101368.78;;;9.92;60.81
61014;BME280;46899;47.542;19.082;2023-10-09T03:17:29;101389.66;;;9.89;59.66
61014;BME280;46899;47.542;19.082;2023-10-09T03:20:32;101403.28;;;10.01;60.44
61014;BME280;46899;47.542;19.082;2023-10-09T03:23:35;101385.87;;;10.08;60.59
61014;BME280;46899;47.542;19.082;2023-10-09T03:26:38;101381.56;;;10.07;61.43
61014;BME280;46899;47.542;19.082;2023-10-09T03:29:41;101386.72;;;10.11;62.21
61014;BME280;46899;47.542;19.082;2023-10-09T03:32:44;101392.72;;;10.15;61.90
61014;BME280;46899;47.542;19.082;2023-10-09T03:35:53;101387.56;;;10.12;62.50
61014;BME280;46899;47.542;19.082;2023-10-09T03:38:58;101396.09;;;10.20;62.48
61014;BME280;46899;47.542;19.082;2023-10-09T03:42:02;101414.28;;;10.20;62.66
61014;BME280;46899;47.542;19.082;2023-10-09T03:45:08;101410.75;;;10.25;62.16
61014;BME280;46899;47.542;19.082;2023-10-09T03:48:30;101386.25;;;10.37;60.75
61014;BME280;46899;47.542;19.082;2023-10-09T03:51:39;101378.63;;;10.28;60.94
61014;BME280;46899;47.542;19.082;2023-10-09T03:54:45;101372.56;;;10.29;61.16
61014;BME280;46899;47.542;19.082;2023-10-09T03:57:52;101382.06;;;10.30;61.17
61014;BME280;46899;47.542;19.082;2023-10-09T04:00:55;101382.78;;;10.38;61.08
61014;BME280;46899;47.542;19.082;2023-10-09T04:03:59;101380.41;;;10.26;61.59
61014;BME280;46899;47.542;19.082;2023-10-09T04:07:03;101368.31;;;10.23;61.65
61014;BME280;46899;47.542;19.082;2023-10-09T04:10:06;101365.75;;;10.22;61.40
61014;BME280;46899;47.542;19.082;2023-10-09T04:13:35;101376.88;;;10.27;60.00
61014;BME280;46899;47.542;19.082;2023-10-09T04:16:38;101380.41;;;10.26;60.12
61014;BME280;46899;47.542;19.082;2023-10-09T04:20:03;101371.56;;;10.36;59.40
61014;BME280;46899;47.542;19.082;2023-10-09T04:23:21;101366.59;;;10.21;58.35
61014;BME280;46899;47.542;19.082;2023-10-09T04:26:39;101377.75;;;10.29;58.19
61014;BME280;46899;47.542;19.082;2023-10-09T04:29:47;101372.47;;;10.34;57.73
61014;BME280;46899;47.542;19.082;2023-10-09T04:32:52;101356.03;;;10.30;56.50
61014;BME280;46899;47.542;19.082;2023-10-09T04:36:05;101361.19;;;10.33;56.08
61014;BME280;46899;47.542;19.082;2023-10-09T04:39:24;101367.25;;;10.34;55.85
61014;BME280;46899;47.542;19.082;2023-10-09T04:42:32;101356.78;;;10.38;55.08
61014;BME280;46899;47.542;19.082;2023-10-09T04:45:41;101348.87;;;10.41;55.53
61014;BME280;46899;47.542;19.082;2023-10-09T04:49:04;101349.84;;;10.37;55.31
61014;BME280;46899;47.542;19.082;2023-10-09T04:52:27;101350.75;;;10.35;55.13
61014;BME280;46899;47.542;19.082;2023-10-09T04:55:33;101355.03;;;10.39;54.13
61014;BME280;46899;47.542;19.082;2023-10-09T04:58:41;101351.50;;;10.41;54.85
61014;BME280;46899;47.542;19.082;2023-10-09T05:01:44;101349.88;;;10.36;54.99
61014;BME280;46899;47.542;19.082;2023-10-09T05:04:49;101337.75;;;10.36;54.65
61014;BME280;46899;47.542;19.082;2023-10-09T05:08:04;101337.59;;;10.42;54.45
61014;BME280;46899;47.542;19.082;2023-10-09T05:11:31;101326.38;;;10.40;54.22
61014;BME280;46899;47.542;19.082;2023-10-09T05:14:52;101322.03;;;10.39;53.95
61014;BME280;46899;47.542;19.082;2023-10-09T05:18:11;101340.09;;;10.48;53.37
61014;BME280;46899;47.542;19.082;2023-10-09T05:21:19;101343.50;;;10.52;53.00
61014;BME280;46899;47.542;19.082;2023-10-09T05:24:33;101340.94;;;10.49;53.06
61014;BME280;46899;47.542;19.082;2023-10-09T05:27:47;101329.53;;;10.57;53.42
61014;BME280;46899;47.542;19.082;2023-10-09T05:30:54;101317.94;;;10.72;52.85
61014;BME280;46899;47.542;19.082;2023-10-09T05:34:20;101325.00;;;10.65;52.61
61014;BME280;46899;47.542;19.082;2023-10-09T05:37:24;101328.53;;;10.63;52.36
61014;BME280;46899;47.542;19.082;2023-10-09T05:40:28;101345.87;;;10.64;52.30
61014;BME280;46899;47.542;19.082;2023-10-09T05:43:34;101341.63;;;10.58;53.14
61014;BME280;46899;47.542;19.082;2023-10-09T05:46:55;101356.28;;;10.62;53.16
61014;BME280;46899;47.542;19.082;2023-10-09T05:50:16;101367.66;;;10.60;53.77
61014;BME280;46899;47.542;19.082;2023-10-09T05:53:21;101364.88;;;10.69;53.05
61014;BME280;46899;47.542;19.082;2023-10-09T05:56:42;101344.88;;;10.71;52.99
61014;BME280;46899;47.542;19.082;2023-10-09T06:00:05;101294.16;;;10.88;52.20
61014;BME280;46899;47.542;19.082;2023-10-09T06:03:27;101338.28;;;10.96;51.66
61014;BME280;46899;47.542;19.082;2023-10-09T06:06:48;101338.28;;;10.96;50.53
61014;BME280;46899;47.542;19.082;2023-10-09T06:10:00;101328.78;;;10.93;50.55
61014;BME280;46899;47.542;19.082;2023-10-09T06:13:13;101328.09;;;10.85;50.47
61014;BME280;46899;47.542;19.082;2023-10-09T06:16:40;101314.06;;;10.91;50.24
61014;BME280;46899;47.542;19.082;2023-10-09T06:19:44;101306.97;;;10.97;49.64
61014;BME280;46899;47.542;19.082;2023-10-09T06:22:47;101290.53;;;10.95;49.13
61014;BME280;46899;47.542;19.082;2023-10-09T06:26:18;101291.34;;;10.99;49.25
61014;BME280;46899;47.542;19.082;2023-10-09T06:29:29;101291.34;;;10.99;49.30
61014;BME280;46899;47.542;19.082;2023-10-09T06:32:43;101296.56;;;10.99;49.36
61014;BME280;46899;47.542;19.082;2023-10-09T06:36:12;101293.69;;;11.10;49.13
61014;BME280;46899;47.542;19.082;2023-10-09T06:39:20;101308.84;;;11.31;48.23
61014;BME280;46899;47.542;19.082;2023-10-09T06:43:02;101301.87;;;11.33;48.38
61014;BME280;46899;47.542;19.082;2023-10-09T06:46:26;101302.72;;;11.33;47.97
61014;BME280;46899;47.542;19.082;2023-10-09T06:49:29;101299.28;;;11.31;47.71
61014;BME280;46899;47.542;19.082;2023-10-09T06:52:32;101303.47;;;11.40;45.40
61014;BME280;46899;47.542;19.082;2023-10-09T06:55:55;101293.47;;;11.57;45.58
61014;BME280;46899;47.542;19.082;2023-10-09T06:59:10;101293.59;;;11.52;46.14
61014;BME280;46899;47.542;19.082;2023-10-09T07:02:19;101282.09;;;11.61;46.29
61014;BME280;46899;47.542;19.082;2023-10-09T07:05:28;101275.53;;;11.82;44.94
61014;BME280;46899;47.542;19.082;2023-10-09T07:08:41;101271.00;;;11.88;45.00
61014;BME280;46899;47.542;19.082;2023-10-09T07:12:00;101276.22;;;11.88;45.02
61014;BME280;46899;47.542;19.082;2023-10-09T07:15:06;101279.72;;;11.87;45.41
61014;BME280;46899;47.542;19.082;2023-10-09T07:18:09;101269.59;;;12.09;44.70
61014;BME280;46899;47.542;19.082;2023-10-09T07:21:22;101258.50;;;12.01;44.08
61014;BME280;46899;47.542;19.082;2023-10-09T07:24:30;101265.22;;;12.09;44.03
61014;BME280;46899;47.542;19.082;2023-10-09T07:27:52;101247.37;;;12.26;44.10
61014;BME280;46899;47.542;19.082;2023-10-09T07:30:57;101222.69;;;12.38;43.29
61014;BME280;46899;47.542;19.082;2023-10-09T07:34:00;101187.47;;;12.53;42.99
61014;BME280;46899;47.542;19.082;2023-10-09T07:37:10;101190.38;;;12.71;42.60
61014;BME280;46899;47.542;19.082;2023-10-09T07:40:13;101189.09;;;12.84;42.37
61014;BME280;46899;47.542;19.082;2023-10-09T07:43:18;101170.66;;;12.89;42.25
61014;BME280;46899;47.542;19.082;2023-10-09T07:46:21;101181.09;;;12.89;41.48
61014;BME280;46899;47.542;19.082;2023-10-09T07:49:35;101172.75;;;13.07;41.80
61014;BME280;46899;47.542;19.082;2023-10-09T07:52:40;101178.34;;;13.47;41.33
61014;BME280;46899;47.542;19.082;2023-10-09T07:55:47;101186.19;;;13.47;40.93
61014;BME280;46899;47.542;19.082;2023-10-09T07:59:01;101179.87;;;13.28;41.00
61014;BME280;46899;47.542;19.082;2023-10-09T08:02:13;101176.56;;;13.23;41.97
61014;BME280;46899;47.542;19.082;2023-10-09T08:05:19;101174.62;;;13.02;41.12
61014;BME280;46899;47.542;19.082;2023-10-09T08:08:22;101191.22;;;12.72;41.35
61014;BME280;46899;47.542;19.082;2023-10-09T08:11:44;101179.56;;;12.54;42.98
61014;BME280;46899;47.542;19.082;2023-10-09T08:14:49;101172.94;;;12.72;42.01
61014;BME280;46899;47.542;19.082;2023-10-09T08:18:01;101171.84;;;12.79;42.51
61014;BME280;46899;47.542;19.082;2023-10-09T08:21:21;101162.22;;;12.81;41.60
61014;BME280;46899;47.542;19.082;2023-10-09T08:24:44;101155.37;;;12.77;42.26
61014;BME280;46899;47.542;19.082;2023-10-09T08:27:57;101145.87;;;12.74;42.29
61014;BME280;46899;47.542;19.082;2023-10-09T08:31:00;101153.09;;;12.66;42.37
61014;BME280;46899;47.542;19.082;2023-10-09T08:34:21;101142.75;;;12.63;42.78
61014;BME280;46899;47.542;19.082;2023-10-09T08:37:30;101155.66;;;12.68;43.05
61014;BME280;46899;47.542;19.082;2023-10-09T08:40:38;101149.13;;;12.53;42.35
61014;BME280;46899;47.542;19.082;2023-10-09T08:43:52;101138.84;;;12.49;42.92
61014;BME280;46899;47.542;19.082;2023-10-09T08:46:56;101128.25;;;12.53;42.96
61014;BME280;46899;47.542;19.082;2023-10-09T08:50:00;101136.81;;;12.58;42.97
61014;BME280;46899;47.542;19.082;2023-10-09T08:53:04;101134.41;;;12.51;42.84
61014;BME280;46899;47.542;19.082;2023-10-09T08:56:07;101138.59;;;12.84;43.05
61014;BME280;46899;47.542;19.082;2023-10-09T08:59:10;101134.09;;;12.89;43.05
61014;BME280;46899;47.542;19.082;2023-10-09T09:02:13;101126.25;;;13.17;42.08
61014;BME280;46899;47.542;19.082;2023-10-09T09:05:19;101113.56;;;13.31;41.39
61014;BME280;46899;47.542;19.082;2023-10-09T09:08:24;101101.03;;;13.40;41.19
61014;BME280;46899;47.542;19.082;2023-10-09T09:11:27;101092.94;;;13.23;41.58
61014;BME280;46899;47.542;19.082;2023-10-09T09:14:36;101098.25;;;13.20;41.90
61014;BME280;46899;47.542;19.082;2023-10-09T09:17:39;101107.50;;;13.80;40.68
61014;BME280;46899;47.542;19.082;2023-10-09T09:20:44;101104.37;;;13.93;41.52
61014;BME280;46899;47.542;19.082;2023-10-09T09:24:00;101088.16;;;14.07;41.35
61014;BME280;46899;47.542;19.082;2023-10-09T09:27:19;101094.75;;;14.17;39.59
61014;BME280;46899;47.542;19.082;2023-10-09T09:30:27;101087.34;;;14.51;40.04
61014;BME280;46899;47.542;19.082;2023-10-09T09:33:36;101073.25;;;14.54;38.66
61014;BME280;46899;47.542;19.082;2023-10-09T09:37:02;101074.44;;;14.68;38.36
61014;BME280;46899;47.542;19.082;2023-10-09T09:40:07;101083.72;;;14.97;37.07
61014;BME280;46899;47.542;19.082;2023-10-09T09:43:42;101083.47;;;15.45;36.80
61014;BME280;46899;47.542;19.082;2023-10-09T09:46:49;101068.06;;;15.36;37.47
61014;BME280;46899;47.542;19.082;2023-10-09T09:49:56;101065.72;;;15.70;36.00
61014;BME280;46899;47.542;19.082;2023-10-09T09:53:03;101063.81;;;15.73;36.46
61014;BME280;46899;47.542;19.082;2023-10-09T09:56:12;101068.72;;;15.41;36.02
61014;BME280;46899;47.542;19.082;2023-10-09T09:59:25;101075.44;;;15.28;35.67
61014;BME280;46899;47.542;19.082;2023-10-09T10:02:35;101066.41;;;15.55;37.37
61014;BME280;46899;47.542;19.082;2023-10-09T10:05:44;101056.75;;;15.94;36.02
61014;BME280;46899;47.542;19.082;2023-10-09T10:08:51;101066.22;;;15.78;36.02
61014;BME280;46899;47.542;19.082;2023-10-09T10:11:54;101050.31;;;15.22;36.58
61014;BME280;46899;47.542;19.082;2023-10-09T10:15:03;101014.84;;;15.34;37.50
61014;BME280;46899;47.542;19.082;2023-10-09T10:18:17;100982.84;;;15.66;36.26
61014;BME280;46899;47.542;19.082;2023-10-09T10:21:23;100951.87;;;15.15;37.96
61014;BME280;46899;47.542;19.082;2023-10-09T10:24:41;100954.16;;;15.23;38.28
61014;BME280;46899;47.542;19.082;2023-10-09T10:31:19;100945.81;;;15.33;37.63
61014;BME280;46899;47.542;19.082;2023-10-09T10:34:25;100934.50;;;15.33;37.06
61014;BME280;46899;47.542;19.082;2023-10-09T10:37:38;100909.66;;;15.02;37.32
61014;BME280;46899;47.542;19.082;2023-10-09T10:40:53;100893.19;;;14.99;38.39
61014;BME280;46899;47.542;19.082;2023-10-09T10:44:03;100895.84;;;15.18;37.28
61014;BME280;46899;47.542;19.082;2023-10-09T10:47:27;100906.12;;;15.22;37.24
61014;BME280;46899;47.542;19.082;2023-10-09T10:50:37;100887.72;;;15.24;37.79
61014;BME280;46899;47.542;19.082;2023-10-09T10:53:51;100857.37;;;15.37;36.78
61014;BME280;46899;47.542;19.082;2023-10-09T10:56:55;100864.00;;;15.45;38.16
61014;BME280;46899;47.542;19.082;2023-10-09T11:00:00;100894.31;;;15.32;37.53
61014;BME280;46899;47.542;19.082;2023-10-09T11:03:21;100896.41;;;15.43;37.76
61014;BME280;46899;47.542;19.082;2023-10-09T11:06:33;100884.50;;;15.56;37.29
61014;BME280;46899;47.542;19.082;2023-10-09T11:09:46;100873.41;;;15.68;37.90
61014;BME280;46899;47.542;19.082;2023-10-09T11:13:02;100909.94;;;16.08;37.21
61014;BME280;46899;47.542;19.082;2023-10-09T11:16:11;100885.44;;;15.91;36.83
61014;BME280;46899;47.542;19.082;2023-10-09T11:19:21;100842.97;;;15.47;36.57
61014;BME280;46899;47.542;19.082;2023-10-09T11:26:11;100933.72;;;15.11;38.42
61014;BME280;46899;47.542;19.082;2023-10-09T11:29:32;100901.81;;;15.40;38.93
61014;BME280;46899;47.542;19.082;2023-10-09T11:32:47;100842.03;;;15.84;37.61
61014;BME280;46899;47.542;19.082;2023-10-09T11:35:56;100820.97;;;16.02;36.79
61014;BME280;46899;47.542;19.082;2023-10-09T11:39:01;100891.34;;;16.30;36.31
61014;BME280;46899;47.542;19.082;2023-10-09T11:42:37;100908.53;;;16.54;35.89
61014;BME280;46899;47.542;19.082;2023-10-09T11:45:41;100916.66;;;16.84;35.61
61014;BME280;46899;47.542;19.082;2023-10-09T11:49:07;100887.66;;;16.85;34.94
61014;BME280;46899;47.542;19.082;2023-10-09T11:52:29;100869.41;;;17.15;35.65
61014;BME280;46899;47.542;19.082;2023-10-09T11:55:39;100859.22;;;17.09;35.32
61014;BME280;46899;47.542;19.082;2023-10-09T11:58:42;100848.34;;;17.15;35.78
61014;BME280;46899;47.542;19.082;2023-10-09T12:01:48;100837.34;;;17.40;36.51
61014;BME280;46899;47.542;19.082;2023-10-09T12:04:56;100839.38;;;17.50;36.55
61014;BME280;46899;47.542;19.082;2023-10-09T12:07:58;100822.50;;;17.23;38.90
61014;BME280;46899;47.542;19.082;2023-10-09T12:11:04;100792.44;;;16.96;42.73
61014;BME280;46899;47.542;19.082;2023-10-09T12:14:11;100807.81;;;16.71;42.75
61014;BME280;46899;47.542;19.082;2023-10-09T12:17:14;100796.75;;;16.31;44.18
61014;BME280;46899;47.542;19.082;2023-10-09T12:20:17;100800.28;;;15.96;45.42
61014;BME280;46899;47.542;19.082;2023-10-09T12:23:35;100801.34;;;15.92;47.16
61014;BME280;46899;47.542;19.082;2023-10-09T12:26:38;100799.59;;;15.76;47.91
61014;BME280;46899;47.542;19.082;2023-10-09T12:29:43;100793.13;;;15.47;48.45
61014;BME280;46899;47.542;19.082;2023-10-09T12:32:50;100775.00;;;15.41;49.61
61014;BME280;46899;47.542;19.082;2023-10-09T12:35:54;100761.28;;;15.54;47.07
61014;BME280;46899;47.542;19.082;2023-10-09T12:39:03;100772.31;;;15.78;49.87
61014;BME280;46899;47.542;19.082;2023-10-09T12:42:08;100768.47;;;16.02;46.35
61014;BME280;46899;47.542;19.082;2023-10-09T12:45:11;100762.69;;;16.13;45.71
61014;BME280;46899;47.542;19.082;2023-10-09T12:48:15;100772.81;;;16.03;45.55
61014;BME280;46899;47.542;19.082;2023-10-09T12:51:18;100783.16;;;15.89;48.19
61014;BME280;46899;47.542;19.082;2023-10-09T12:54:21;100780.66;;;15.52;50.48
61014;BME280;46899;47.542;19.082;2023-10-09T12:57:30;100783.66;;;15.43;51.73
61014;BME280;46899;47.542;19.082;2023-10-09T13:00:34;100785.66;;;15.56;52.77
61014;BME280;46899;47.542;19.082;2023-10-09T13:03:39;100770.62;;;15.60;53.16
61014;BME280;46899;47.542;19.082;2023-10-09T13:06:45;100771.28;;;15.28;54.06
61014;BME280;46899;47.542;19.082;2023-10-09T13:09:49;100784.66;;;15.22;55.32
61014;BME280;46899;47.542;19.082;2023-10-09T13:13:10;100780.59;;;14.97;54.69
61014;BME280;46899;47.542;19.082;2023-10-09T13:16:15;100776.37;;;14.93;56.96
61014;BME280;46899;47.542;19.082;2023-10-09T13:19:28;100778.97;;;14.95;56.26
61014;BME280;46899;47.542;19.082;2023-10-09T13:22:31;100765.56;;;14.82;59.81
61014;BME280;46899;47.542;19.082;2023-10-09T13:25:33;100761.16;;;14.64;60.95
61014;BME280;46899;47.542;19.082;2023-10-09T13:28:42;100758.78;;;14.39;61.88
61014;BME280;46899;47.542;19.082;2023-10-09T13:31:48;100755.81;;;14.27;64.61
61014;BME280;46899;47.542;19.082;2023-10-09T13:34:51;100747.72;;;14.13;68.07
61014;BME280;46899;47.542;19.082;2023-10-09T13:37:57;100739.72;;;13.96;72.23
61014;BME280;46899;47.542;19.082;2023-10-09T13:41:00;100737.09;;;13.76;75.02
61014;BME280;46899;47.542;19.082;2023-10-09T13:44:07;100750.56;;;13.66;79.36
61014;BME280;46899;47.542;19.082;2023-10-09T13:47:11;100745.97;;;13.51;81.84
61014;BME280;46899;47.542;19.082;2023-10-09T13:50:26;100753.94;;;13.48;79.35
61014;BME280;46899;47.542;19.082;2023-10-09T13:53:35;100747.25;;;13.41;84.07
61014;BME280;46899;47.542;19.082;2023-10-09T13:56:38;100755.87;;;13.43;86.43
61014;BME280;46899;47.542;19.082;2023-10-09T13:59:42;100750.03;;;13.58;85.82
61014;BME280;46899;47.542;19.082;2023-10-09T14:02:54;100742.00;;;13.41;94.35
61014;BME280;46899;47.542;19.082;2023-10-09T14:05:57;100728.50;;;13.52;88.27
61014;BME280;46899;47.542;19.082;2023-10-09T14:09:12;100713.62;;;13.32;88.27
61014;BME280;46899;47.542;19.082;2023-10-09T14:12:31;100704.09;;;13.31;92.11
61014;BME280;46899;47.542;19.082;2023-10-09T14:15:34;100698.44;;;13.20;93.97
61014;BME280;46899;47.542;19.082;2023-10-09T14:18:42;100704.56;;;12.97;96.26
61014;BME280;46899;47.542;19.082;2023-10-09T14:21:45;100702.81;;;12.75;95.72
61014;BME280;46899;47.542;19.082;2023-10-09T14:24:54;100673.06;;;12.57;100.00
61014;BME280;46899;47.542;19.082;2023-10-09T14:28:00;100687.00;;;12.56;100.00
61014;BME280;46899;47.542;19.082;2023-10-09T14:31:03;100686.78;;;12.62;100.00
61014;BME280;46899;47.542;19.082;2023-10-09T14:34:10;100689.16;;;12.68;100.00
61014;BME280;46899;47.542;19.082;2023-10-09T14:37:13;100707.34;;;12.70;100.00
61014;BME280;46899;47.542;19.082;2023-10-09T14:40:17;100706.81;;;12.62;100.00
61014;BME280;46899;47.542;19.082;2023-10-09T14:43:32;100704.87;;;12.67;100.00
61014;BME280;46899;47.542;19.082;2023-10-09T14:46:36;100712.81;;;12.64;100.00
61014;BME280;46899;47.542;19.082;2023-10-09T14:49:40;100711.91;;;12.65;100.00
61014;BME280;46899;47.542;19.082;2023-10-09T14:52:50;100705.34;;;12.55;100.00
61014;BME280;46899;47.542;19.082;2023-10-09T14:55:55;100701.13;;;12.51;100.00
61014;BME280;46899;47.542;19.082;2023-10-09T14:58:59;100695.25;;;12.46;100.00
61014;BME280;46899;47.542;19.082;2023-10-09T15:02:02;100707.47;;;12.44;100.00
61014;BME280;46899;47.542;19.082;2023-10-09T15:05:05;100703.25;;;12.41;100.00
61014;BME280;46899;47.542;19.082;2023-10-09T15:08:13;100692.06;;;12.37;100.00
61014;BME280;46899;47.542;19.082;2023-10-09T15:11:16;100688.56;;;12.39;100.00
61014;BME280;46899;47.542;19.082;2023-10-09T15:14:19;100696.56;;;12.34;100.00
61014;BME280;46899;47.542;19.082;2023-10-09T15:17:23;100692.16;;;12.34;100.00
61014;BME280;46899;47.542;19.082;2023-10-09T15:20:27;100683.09;;;12.21;100.00
61014;BME280;46899;47.542;19.082;2023-10-09T15:23:30;100683.53;;;12.32;100.00
61014;BME280;46899;47.542;19.082;2023-10-09T15:26:34;100671.47;;;12.30;100.00
61014;BME280;46899;47.542;19.082;2023-10-09T15:29:36;100671.28;;;12.34;100.00
61014;BME280;46899;47.542;19.082;2023-10-09T15:32:45;100690.69;;;12.27;100.00
61014;BME280;46899;47.542;19.082;2023-10-09T15:35:48;100696.06;;;12.23;100.00
61014;BME280;46899;47.542;19.082;2023-10-09T15:38:55;100685.91;;;12.15;100.00
61014;BME280;46899;47.542;19.082;2023-10-09T15:42:02;100673.00;;;12.12;100.00
61014;BME280;46899;47.542;19.082;2023-10-09T15:45:19;100659.25;;;12.07;100.00
61014;BME280;46899;47.542;19.082;2023-10-09T15:48:25;100657.00;;;11.98;100.00
61014;BME280;46899;47.542;19.082;2023-10-09T15:51:28;100664.03;;;11.96;100.00
61014;BME280;46899;47.542;19.082;2023-10-09T15:54:32;100666.81;;;11.90;100.00
61014;BME280;46899;47.542;19.082;2023-10-09T15:57:35;100665.94;;;11.91;100.00
61014;BME280;46899;47.542;19.082;2023-10-09T16:00:37;100657.94;;;11.96;100.00
61014;BME280;46899;47.542;19.082;2023-10-09T16:03:42;100643.34;;;11.90;100.00
61014;BME280;46899;47.542;19.082;2023-10-09T16:06:46;100650.50;;;11.85;100.00
61014;BME280;46899;47.542;19.082;2023-10-09T16:09:49;100653.16;;;11.84;100.00
61014;BME280;46899;47.542;19.082;2023-10-09T16:12:51;100656.25;;;11.70;100.00
61014;BME280;46899;47.542;19.082;2023-10-09T16:15:55;100672.03;;;11.65;100.00
61014;BME280;46899;47.542;19.082;2023-10-09T16:19:02;100659.41;;;11.53;100.00
61014;BME280;46899;47.542;19.082;2023-10-09T16:22:07;100661.41;;;11.45;100.00
61014;BME280;46899;47.542;19.082;2023-10-09T16:25:13;100668.50;;;11.42;100.00
61014;BME280;46899;47.542;19.082;2023-10-09T16:28:16;100673.72;;;11.40;100.00